createdAt,value
2018-05-24T00:00:21.608Z,77.60
2018-05-24T00:02:49.924Z,77.80
2018-05-24T00:05:17.464Z,77.70
2018-05-24T00:07:45.015Z,77.80
2018-05-24T00:10:12.547Z,77.50
2018-05-24T00:12:40.067Z,77.60
2018-05-24T00:15:07.595Z,77.20
2018-05-24T00:17:35.111Z,77.40
2018-05-24T00:20:03.414Z,78.30
2018-05-24T00:22:30.949Z,78.10
2018-05-24T00:24:58.489Z,77.70
2018-05-24T00:27:26.788Z,77.30
2018-05-24T00:29:54.347Z,77.20
2018-05-24T00:32:21.864Z,77.10
2018-05-24T00:34:49.395Z,77.10
2018-05-24T00:37:16.914Z,76.90
2018-05-24T00:39:44.440Z,77.60
2018-05-24T00:42:11.952Z,77.60
2018-05-24T00:44:39.500Z,77.50
2018-05-24T00:47:07.787Z,77.30
2018-05-24T00:49:35.346Z,77.30
2018-05-24T00:52:03.632Z,78.50
2018-05-24T00:54:31.202Z,78.40
2018-05-24T00:56:58.726Z,79.00
2018-05-24T00:59:26.275Z,79.00
2018-05-24T01:01:53.792Z,79.60
2018-05-24T01:04:21.317Z,78.70
2018-05-24T01:06:48.859Z,78.50
2018-05-24T01:09:16.391Z,78.60
2018-05-24T01:11:44.692Z,79.30
2018-05-24T01:14:12.229Z,79.30
2018-05-24T01:16:39.769Z,79.40
2018-05-24T01:19:07.279Z,79.60
2018-05-24T01:21:34.823Z,80.70
2018-05-24T01:24:02.340Z,80.60
2018-05-24T01:26:30.639Z,81.20
2018-05-24T01:28:58.151Z,81.20
2018-05-24T01:31:25.687Z,80.70
2018-05-24T01:33:53.203Z,80.10
2018-05-24T01:36:20.740Z,80.30
2018-05-24T01:38:48.883Z,80.80
2018-05-24T01:41:16.433Z,81.20
2018-05-24T01:43:43.946Z,81.70
2018-05-24T01:46:11.485Z,82.20
2018-05-24T01:48:39.004Z,82.50
2018-05-24T01:51:06.538Z,83.00
2018-05-24T01:53:34.087Z,82.90
2018-05-24T01:56:01.612Z,83.30
2018-05-24T01:58:30.926Z,83.30
2018-05-24T02:00:59.415Z,83.20
2018-05-24T02:03:27.692Z,83.60
2018-05-24T02:05:56.003Z,82.80
2018-05-24T02:08:23.532Z,82.60
2018-05-24T02:10:51.056Z,82.90
2018-05-24T02:13:18.620Z,83.60
2018-05-24T02:15:46.132Z,82.60
2018-05-24T02:18:14.434Z,82.70
2018-05-24T02:20:41.963Z,82.70
2018-05-24T02:23:09.497Z,82.20
2018-05-24T02:25:37.016Z,82.20
2018-05-24T02:28:04.840Z,82.40
2018-05-24T02:30:32.374Z,82.90
2018-05-24T02:32:59.914Z,83.10
2018-05-24T02:35:27.455Z,83.40
2018-05-24T02:37:55.007Z,83.70
2018-05-24T02:40:22.532Z,83.30
2018-05-24T02:42:50.833Z,83.70
2018-05-24T02:45:18.348Z,83.70
2018-05-24T02:47:45.883Z,83.30
2018-05-24T02:50:14.169Z,83.70
2018-05-24T02:52:41.707Z,83.70
2018-05-24T02:55:09.992Z,82.60
2018-05-24T02:57:37.532Z,82.50
2018-05-24T03:00:05.062Z,82.40
2018-05-24T03:02:32.594Z,82.90
2018-05-24T03:05:00.110Z,82.90
2018-05-24T03:07:27.641Z,83.10
2018-05-24T03:09:55.161Z,82.90
2018-05-24T03:12:22.700Z,82.90
2018-05-24T03:14:50.241Z,83.10
2018-05-24T03:17:18.545Z,82.00
2018-05-24T03:19:46.491Z,81.80
2018-05-24T03:22:14.807Z,81.40
2018-05-24T03:24:42.341Z,81.30
2018-05-24T03:27:09.896Z,81.10
2018-05-24T03:29:37.449Z,80.50
2018-05-24T03:32:04.972Z,79.70
2018-05-24T03:34:32.515Z,80.30
2018-05-24T03:37:00.037Z,79.20
2018-05-24T03:39:27.573Z,79.30
2018-05-24T03:41:55.862Z,78.90
2018-05-24T03:44:23.403Z,78.80
2018-05-24T03:46:50.911Z,79.00
2018-05-24T03:49:18.445Z,78.50
2018-05-24T03:51:45.964Z,78.50
2018-05-24T03:54:13.497Z,78.70
2018-05-24T03:56:41.012Z,78.70
2018-05-24T04:02:30.501Z,78.50
2018-05-24T04:04:58.827Z,79.20
2018-05-24T04:07:26.349Z,78.10
2018-05-24T04:09:53.890Z,78.10
2018-05-24T04:12:21.700Z,78.20
2018-05-24T04:14:49.245Z,78.10
2018-05-24T04:17:16.841Z,76.70
2018-05-24T04:19:44.465Z,76.90
2018-05-24T04:22:12.006Z,76.50
2018-05-24T04:24:39.568Z,76.80
2018-05-24T04:27:07.169Z,76.70
2018-05-24T04:29:34.663Z,75.40
2018-05-24T04:32:02.195Z,75.20
2018-05-24T04:34:29.738Z,75.00
2018-05-24T04:36:58.332Z,75.80
2018-05-24T04:39:25.880Z,74.70
2018-05-24T04:41:53.410Z,75.50
2018-05-24T04:44:21.167Z,75.30
2018-05-24T04:46:48.799Z,74.80
2018-05-24T04:49:16.336Z,73.70
2018-05-24T04:51:44.632Z,74.00
2018-05-24T04:54:12.337Z,73.90
2018-05-24T04:56:39.866Z,73.50
2018-05-24T04:59:08.217Z,74.20
2018-05-24T05:01:36.567Z,73.90
2018-05-24T05:04:04.060Z,73.90
2018-05-24T05:06:31.595Z,73.50
2018-05-24T05:08:59.125Z,73.50
2018-05-24T05:11:26.660Z,71.90
2018-05-24T05:13:54.188Z,72.30
2018-05-24T05:16:21.729Z,72.40
2018-05-24T05:18:50.081Z,73.40
2018-05-24T05:21:17.614Z,73.40
2018-05-24T05:23:45.148Z,72.20
2018-05-24T05:26:12.700Z,72.00
2018-05-24T05:28:40.216Z,70.90
2018-05-24T05:31:07.748Z,70.10
2018-05-24T05:33:35.290Z,68.70
2018-05-24T05:36:02.843Z,69.40
2018-05-24T05:38:31.322Z,70.20
2018-05-24T05:40:58.863Z,69.20
2018-05-24T05:43:26.402Z,69.40
2018-05-24T05:45:53.951Z,70.60
2018-05-24T05:48:21.475Z,68.40
2018-05-24T05:50:49.020Z,67.70
2018-05-24T05:53:16.596Z,68.80
2018-05-24T05:55:44.134Z,67.20
2018-05-24T05:58:11.660Z,69.10
2018-05-24T06:00:39.960Z,68.50
2018-05-24T06:03:07.849Z,68.40
2018-05-24T06:05:35.387Z,67.30
2018-05-24T06:08:02.921Z,67.50
2018-05-24T06:10:30.469Z,65.50
2018-05-24T06:12:58.780Z,64.50
2018-05-24T06:15:26.359Z,64.40
2018-05-24T06:17:54.648Z,63.30
2018-05-24T06:20:22.177Z,63.30
2018-05-24T06:22:49.708Z,63.80
2018-05-24T06:25:17.230Z,63.10
2018-05-24T06:27:44.781Z,64.60
2018-05-24T06:30:12.317Z,66.00
2018-05-24T06:32:39.877Z,64.00
2018-05-24T06:35:07.392Z,63.20
2018-05-24T06:37:35.700Z,62.00
2018-05-24T06:40:03.275Z,62.00
2018-05-24T06:42:30.818Z,60.50
2018-05-24T06:44:58.348Z,61.60
2018-05-24T06:47:25.891Z,62.40
2018-05-24T06:49:54.181Z,63.90
2018-05-24T06:52:21.735Z,63.90
2018-05-24T06:54:49.283Z,63.80
2018-05-24T06:57:16.816Z,61.10
2018-05-24T06:59:44.332Z,58.70
2018-05-24T07:02:11.890Z,57.00
2018-05-24T07:04:39.417Z,57.40
2018-05-24T07:07:07.715Z,56.30
2018-05-24T07:09:35.231Z,56.30
2018-05-24T07:12:02.765Z,54.90
2018-05-24T07:14:30.300Z,53.50
2018-05-24T07:16:57.861Z,52.60
2018-05-24T07:19:25.380Z,51.70
2018-05-24T07:21:52.926Z,48.10
2018-05-24T07:24:20.487Z,45.60
2018-05-24T07:26:48.784Z,38.30
2018-05-24T07:29:16.316Z,38.30
2018-05-24T07:31:44.617Z,34.00
2018-05-24T07:34:12.157Z,33.80
2018-05-24T07:36:40.460Z,27.70
2018-05-24T07:39:08.004Z,27.60
2018-05-24T07:41:35.528Z,24.50
2018-05-24T07:44:03.081Z,22.50
2018-05-24T07:46:30.601Z,22.80
2018-05-24T07:48:58.149Z,23.00
2018-05-24T07:51:25.681Z,23.00
2018-05-24T07:53:53.229Z,22.30
2018-05-24T07:56:20.749Z,22.60
2018-05-24T07:58:48.294Z,23.30
2018-05-24T08:01:15.812Z,24.80
2018-05-24T08:03:44.125Z,23.50
2018-05-24T08:06:11.893Z,24.00
2018-05-24T08:08:39.508Z,25.10
2018-05-24T08:11:06.990Z,25.70
2018-05-24T08:13:34.530Z,25.80
2018-05-24T08:16:02.843Z,24.30
2018-05-24T08:18:30.363Z,24.20
2018-05-24T08:20:58.653Z,23.20
2018-05-24T08:23:26.192Z,23.10
2018-05-24T08:25:54.487Z,24.70
2018-05-24T08:28:22.019Z,24.70
2018-05-24T08:30:49.544Z,25.80
2018-05-24T08:33:17.102Z,24.00
2018-05-24T08:35:44.626Z,23.90
2018-05-24T08:38:12.186Z,24.60
2018-05-24T08:40:39.783Z,24.30
2018-05-24T08:43:07.281Z,22.00
2018-05-24T08:45:34.815Z,22.20
2018-05-24T08:48:02.346Z,22.70
2018-05-24T08:50:29.896Z,22.90
2018-05-24T08:52:57.415Z,22.60
2018-05-24T08:55:25.711Z,22.40
2018-05-24T08:57:53.228Z,22.40
2018-05-24T09:00:20.791Z,22.50
2018-05-24T09:02:49.088Z,24.30
2018-05-24T09:05:16.623Z,24.20
2018-05-24T09:07:44.919Z,24.00
2018-05-24T09:10:12.464Z,24.00
2018-05-24T09:12:40.753Z,24.00
2018-05-24T09:15:08.288Z,24.00
2018-05-24T09:17:36.598Z,25.90
2018-05-24T09:20:04.166Z,25.80
2018-05-24T09:22:31.692Z,25.00
2018-05-24T09:24:59.999Z,24.40
2018-05-24T09:27:27.520Z,24.40
2018-05-24T09:29:55.070Z,24.40
2018-05-24T09:32:22.623Z,22.30
2018-05-24T09:34:50.158Z,21.50
2018-05-24T09:37:17.676Z,22.50
2018-05-24T09:39:46.752Z,21.00
2018-05-24T09:42:14.318Z,21.70
2018-05-24T09:44:41.836Z,21.80
2018-05-24T09:47:09.376Z,22.50
2018-05-24T09:49:36.927Z,22.80
2018-05-24T09:52:04.456Z,22.00
2018-05-24T09:54:31.986Z,22.60
2018-05-24T09:56:59.537Z,21.60
2018-05-24T09:59:27.062Z,23.10
2018-05-24T10:01:54.601Z,24.50
2018-05-24T10:04:22.126Z,24.70
2018-05-24T10:06:50.428Z,24.70
2018-05-24T10:09:17.947Z,24.70
2018-05-24T10:11:45.492Z,24.60
2018-05-24T10:14:13.021Z,25.10
2018-05-24T10:16:40.582Z,27.00
2018-05-24T10:19:08.113Z,29.20
2018-05-24T10:21:35.680Z,30.40
2018-05-24T10:24:03.203Z,31.60
2018-05-24T10:26:31.507Z,34.10
2018-05-24T10:28:59.042Z,34.00
2018-05-24T10:31:27.711Z,32.80
2018-05-24T10:33:55.238Z,32.70
2018-05-24T10:36:22.777Z,33.90
2018-05-24T10:38:50.306Z,33.20
2018-05-24T10:41:17.843Z,34.50
2018-05-24T10:43:45.370Z,34.30
2018-05-24T10:46:13.684Z,34.20
2018-05-24T10:48:41.973Z,34.60
2018-05-24T10:51:09.516Z,34.50
2018-05-24T10:53:37.825Z,33.40
2018-05-24T10:56:05.436Z,33.30
2018-05-24T10:58:32.907Z,32.30
2018-05-24T11:01:00.452Z,34.00
2018-05-24T11:03:28.006Z,32.80
2018-05-24T11:05:55.507Z,31.00
2018-05-24T11:08:23.057Z,32.20
2018-05-24T11:10:50.588Z,32.00
2018-05-24T11:13:18.119Z,33.10
2018-05-24T11:15:45.645Z,32.60
2018-05-24T11:18:13.185Z,31.40
2018-05-24T11:20:40.716Z,33.20
2018-05-24T11:23:08.270Z,32.60
2018-05-24T11:25:35.795Z,30.10
2018-05-24T11:28:03.331Z,31.20
2018-05-24T11:30:30.905Z,30.30
2018-05-24T11:32:58.440Z,32.70
2018-05-24T11:35:25.973Z,32.60
2018-05-24T11:37:53.529Z,32.10
2018-05-24T11:40:21.048Z,29.60
2018-05-24T11:42:48.592Z,30.90
2018-05-24T11:45:16.108Z,31.70
2018-05-24T11:47:43.648Z,31.50
2018-05-24T11:50:11.182Z,31.20
2018-05-24T11:52:38.731Z,30.20
2018-05-24T11:55:06.264Z,31.90
2018-05-24T11:57:33.800Z,31.60
2018-05-24T12:00:02.101Z,30.30
2018-05-24T12:02:29.637Z,30.40
2018-05-24T12:04:57.937Z,29.80
2018-05-24T12:07:25.488Z,29.80
2018-05-24T12:09:53.075Z,30.00
2018-05-24T12:12:20.591Z,30.60
2018-05-24T12:14:48.871Z,31.30
2018-05-24T12:17:16.431Z,31.20
2018-05-24T12:19:43.947Z,32.60
2018-05-24T12:22:11.988Z,32.00
2018-05-24T12:24:39.544Z,29.30
2018-05-24T12:27:07.083Z,30.10
2018-05-24T12:29:34.620Z,30.00
2018-05-24T12:32:02.161Z,30.50
2018-05-24T12:34:29.708Z,29.90
2018-05-24T12:36:57.238Z,31.80
2018-05-24T12:39:24.792Z,30.50
2018-05-24T12:41:52.386Z,30.80
2018-05-24T12:44:19.885Z,31.20
2018-05-24T12:46:47.419Z,30.50
2018-05-24T12:49:14.956Z,30.40
2018-05-24T12:51:42.492Z,31.50
2018-05-24T12:54:10.049Z,30.60
2018-05-24T12:56:37.567Z,30.20
2018-05-24T12:59:05.117Z,32.20
2018-05-24T13:01:33.548Z,29.60
2018-05-24T13:04:01.085Z,30.10
2018-05-24T13:06:28.614Z,30.50
2018-05-24T13:08:56.148Z,30.40
2018-05-24T13:11:23.663Z,30.40
2018-05-24T13:13:51.972Z,31.70
2018-05-24T13:16:19.487Z,31.60
2018-05-24T13:18:47.034Z,32.10
2018-05-24T13:21:14.575Z,30.00
2018-05-24T13:23:42.167Z,31.50
2018-05-24T13:26:09.699Z,30.70
2018-05-24T13:28:37.243Z,32.10
2018-05-24T13:31:04.772Z,29.70
2018-05-24T13:33:32.324Z,29.90
2018-05-24T13:35:59.870Z,29.60
2018-05-24T13:38:27.415Z,30.70
2018-05-24T13:40:55.460Z,30.50
2018-05-24T13:43:23.058Z,30.50
2018-05-24T13:45:50.611Z,30.30
2018-05-24T13:48:18.129Z,29.30
2018-05-24T13:50:46.465Z,30.50
2018-05-24T13:53:13.979Z,30.40
2018-05-24T13:55:41.543Z,31.00
2018-05-24T13:58:09.101Z,31.70
2018-05-24T14:00:36.640Z,30.10
2018-05-24T14:03:04.934Z,31.50
2018-05-24T14:05:32.490Z,31.50
2018-05-24T14:08:00.017Z,31.70
2018-05-24T14:10:27.577Z,31.10
2018-05-24T14:12:55.881Z,29.60
2018-05-24T14:15:23.419Z,29.50
2018-05-24T14:17:51.699Z,30.40
2018-05-24T14:20:20.002Z,30.70
2018-05-24T14:22:47.528Z,30.70
2018-05-24T14:25:15.075Z,30.50
2018-05-24T14:27:43.363Z,30.70
2018-05-24T14:30:11.669Z,31.20
2018-05-24T14:32:39.210Z,31.20
2018-05-24T14:35:06.750Z,30.80
2018-05-24T14:37:35.038Z,29.30
2018-05-24T14:40:03.374Z,30.10
2018-05-24T14:42:30.895Z,30.10
2018-05-24T14:44:58.467Z,30.40
2018-05-24T14:47:25.976Z,31.00
2018-05-24T14:49:53.507Z,31.90
2018-05-24T14:52:21.043Z,31.80
2018-05-24T14:54:48.576Z,31.10
2018-05-24T14:57:16.125Z,31.90
2018-05-24T14:59:43.681Z,30.90
2018-05-24T15:02:11.231Z,31.50
2018-05-24T15:04:39.512Z,33.40
2018-05-24T15:07:07.845Z,32.20
2018-05-24T15:09:35.383Z,32.10
2018-05-24T15:12:02.961Z,32.30
2018-05-24T15:14:30.492Z,32.60
2018-05-24T15:16:58.048Z,31.80
2018-05-24T15:19:25.566Z,32.80
2018-05-24T15:21:53.872Z,31.60
2018-05-24T15:24:21.397Z,31.60
2018-05-24T15:26:49.710Z,31.40
2018-05-24T15:29:17.242Z,31.40
2018-05-24T15:31:45.549Z,31.20
2018-05-24T15:34:13.067Z,31.20
2018-05-24T15:36:41.366Z,31.80
2018-05-24T15:39:08.888Z,31.70
2018-05-24T15:41:36.420Z,30.90
2018-05-24T15:44:03.932Z,31.10
2018-05-24T15:46:31.477Z,32.10
2018-05-24T15:48:59.066Z,31.90
2018-05-24T15:51:26.543Z,32.60
2018-05-24T15:53:54.063Z,32.00
2018-05-24T15:56:22.377Z,32.70
2018-05-24T15:58:49.900Z,33.30
2018-05-24T16:01:17.438Z,33.20
2018-05-24T16:03:44.987Z,33.10
2018-05-24T16:06:13.428Z,32.90
2018-05-24T16:08:40.970Z,32.90
2018-05-24T16:11:08.523Z,31.80
2018-05-24T16:13:36.057Z,33.00
2018-05-24T16:16:04.354Z,32.90
2018-05-24T16:18:31.895Z,32.90
2018-05-24T16:20:59.463Z,33.20
2018-05-24T16:23:26.995Z,34.10
2018-05-24T16:25:54.523Z,33.40
2018-05-24T16:28:22.052Z,34.40
2018-05-24T16:30:49.568Z,34.70
2018-05-24T16:33:17.101Z,35.10
2018-05-24T16:35:44.625Z,34.90
2018-05-24T16:38:12.167Z,35.90
2018-05-24T16:40:39.698Z,35.20
2018-05-24T16:43:07.249Z,35.70
2018-05-24T16:45:34.775Z,34.50
2018-05-24T16:48:02.317Z,35.00
2018-05-24T16:50:29.839Z,35.00
2018-05-24T16:52:58.143Z,35.10
2018-05-24T16:55:25.673Z,35.00
2018-05-24T16:57:53.977Z,36.70
2018-05-24T17:00:21.516Z,36.70
2018-05-24T17:02:49.875Z,36.00
2018-05-24T17:05:17.405Z,36.00
2018-05-24T17:07:44.945Z,39.70
2018-05-24T17:10:12.462Z,37.50
2018-05-24T17:12:40.753Z,37.10
2018-05-24T17:15:08.288Z,37.70
2018-05-24T17:17:36.580Z,37.10
2018-05-24T17:20:04.171Z,37.00
2018-05-24T17:22:31.696Z,36.60
2018-05-24T17:25:05.263Z,38.00
2018-05-24T17:27:32.939Z,38.00
2018-05-24T17:30:01.240Z,36.60
2018-05-24T17:32:28.771Z,36.60
2018-05-24T17:34:57.081Z,38.10
2018-05-24T17:37:26.429Z,38.00
2018-05-24T17:39:55.179Z,39.00
2018-05-24T17:42:22.712Z,39.30
2018-05-24T17:44:50.251Z,38.60
2018-05-24T17:47:17.776Z,38.80
2018-05-24T17:49:45.325Z,38.60
2018-05-24T17:52:12.839Z,39.20
2018-05-24T17:54:41.141Z,39.00
2018-05-24T17:57:08.677Z,39.00
2018-05-24T17:59:36.210Z,39.20
2018-05-24T18:02:03.746Z,41.40
2018-05-24T18:04:31.302Z,40.20
2018-05-24T18:06:58.833Z,41.40
2018-05-24T18:09:26.395Z,41.20
2018-05-24T18:11:53.912Z,40.80
2018-05-24T18:14:22.320Z,39.40
2018-05-24T18:16:49.842Z,39.40
2018-05-24T18:19:17.392Z,41.30
2018-05-24T18:21:44.912Z,42.50
2018-05-24T18:24:12.472Z,43.60
2018-05-24T18:26:40.001Z,44.00
2018-05-24T18:29:07.596Z,43.20
2018-05-24T18:31:35.141Z,43.80
2018-05-24T18:34:02.684Z,41.70
2018-05-24T18:36:30.325Z,41.70
2018-05-24T18:38:57.855Z,43.70
2018-05-24T18:41:25.395Z,44.00
2018-05-24T18:43:52.944Z,45.40
2018-05-24T18:46:21.369Z,46.20
2018-05-24T18:48:49.668Z,45.70
2018-05-24T18:51:17.960Z,45.70
2018-05-24T18:53:45.681Z,46.90
2018-05-24T18:56:14.014Z,47.60
2018-05-24T18:58:42.212Z,47.60
2018-05-24T19:01:09.795Z,48.00
2018-05-24T19:03:37.416Z,48.10
2018-05-24T19:06:04.973Z,49.50
2018-05-24T19:08:32.501Z,49.00
2018-05-24T19:11:00.052Z,50.00
2018-05-24T19:13:27.582Z,50.10
2018-05-24T19:15:55.920Z,51.10
2018-05-24T19:18:23.450Z,51.10
2018-05-24T19:20:51.034Z,51.70
2018-05-24T19:23:18.675Z,52.30
2018-05-24T19:25:46.213Z,53.00
2018-05-24T19:28:13.739Z,52.40
2018-05-24T19:30:42.050Z,54.40
2018-05-24T19:33:09.574Z,54.40
2018-05-24T19:35:37.180Z,55.00
2018-05-24T19:38:04.885Z,56.00
2018-05-24T19:40:32.452Z,56.10
2018-05-24T19:43:00.020Z,57.60
2018-05-24T19:45:27.579Z,57.30
2018-05-24T19:47:55.113Z,58.30
2018-05-24T19:50:22.664Z,58.60
2018-05-24T19:52:50.195Z,58.70
2018-05-24T19:55:17.725Z,59.70
2018-05-24T19:57:45.261Z,60.00
2018-05-24T20:00:12.777Z,60.00
2018-05-24T20:02:40.312Z,60.40
2018-05-24T20:05:07.865Z,60.40
2018-05-24T20:07:35.440Z,60.70
2018-05-24T20:10:03.013Z,59.90
2018-05-24T20:12:30.591Z,59.90
2018-05-24T20:14:58.905Z,60.40
2018-05-24T20:17:26.473Z,60.30
2018-05-24T20:19:54.037Z,62.50
2018-05-24T20:22:21.617Z,62.30
2018-05-24T20:24:49.172Z,63.10
2018-05-24T20:27:16.753Z,63.80
2018-05-24T20:29:45.113Z,64.00
2018-05-24T20:32:12.685Z,64.00
2018-05-24T20:34:41.130Z,65.40
2018-05-24T20:37:08.707Z,65.40
2018-05-24T20:39:36.275Z,65.90
2018-05-24T20:42:03.856Z,66.10
2018-05-24T20:44:32.173Z,66.70
2018-05-24T20:46:59.745Z,66.60
2018-05-24T20:49:27.287Z,66.40
2018-05-24T20:51:54.870Z,67.30
2018-05-24T20:54:22.412Z,68.90
2018-05-24T20:56:49.952Z,68.40
2018-05-24T20:59:17.523Z,68.30
2018-05-24T21:01:45.162Z,67.40
2018-05-24T21:04:13.477Z,69.50
2018-05-24T21:06:41.027Z,69.50
2018-05-24T21:09:08.600Z,71.00
2018-05-24T21:11:36.168Z,70.80
2018-05-24T21:14:03.757Z,71.10
2018-05-24T21:16:32.080Z,72.40
2018-05-24T21:18:59.644Z,72.30
2018-05-24T21:21:27.196Z,73.50
2018-05-24T21:23:54.760Z,74.50
2018-05-24T21:26:22.379Z,75.10
2018-05-24T21:28:49.948Z,75.50
2018-05-24T21:31:17.496Z,75.50
2018-05-24T21:33:45.064Z,76.00
2018-05-24T21:36:12.616Z,76.50
2018-05-24T21:38:40.192Z,76.10
2018-05-24T21:41:07.756Z,76.10
2018-05-24T21:43:35.337Z,75.30
2018-05-24T21:46:02.889Z,76.20
2018-05-24T21:48:30.447Z,76.60
2018-05-24T21:50:57.996Z,77.10
2018-05-24T21:53:25.563Z,76.60
2018-05-24T21:55:53.130Z,76.50
2018-05-24T21:58:20.714Z,77.00
2018-05-24T22:00:50.930Z,76.70
2018-05-24T22:03:19.284Z,77.90
2018-05-24T22:05:46.843Z,77.90
2018-05-24T22:08:14.418Z,78.70
2018-05-24T22:10:41.987Z,78.60
2018-05-24T22:13:10.320Z,80.10
2018-05-24T22:15:37.900Z,80.10
2018-05-24T22:18:05.592Z,80.80
2018-05-24T22:20:33.936Z,79.30
2018-05-24T22:23:01.498Z,79.30
2018-05-24T22:25:29.107Z,79.60
2018-05-24T22:27:56.661Z,80.50
2018-05-24T22:30:24.228Z,80.40
2018-05-24T22:32:51.771Z,81.20
2018-05-24T22:35:20.106Z,81.80
2018-05-24T22:37:47.672Z,81.70
2018-05-24T22:40:15.271Z,82.50
2018-05-24T22:42:42.856Z,82.90
2018-05-24T22:45:10.416Z,83.10
2018-05-24T22:47:37.976Z,82.90
2018-05-24T22:50:05.549Z,82.80
2018-05-24T22:52:33.109Z,83.10
2018-05-24T22:55:00.689Z,83.10
2018-05-24T22:57:28.245Z,83.20
2018-05-24T22:59:55.817Z,83.80
2018-05-24T23:02:23.380Z,82.40
2018-05-24T23:04:51.717Z,83.20
2018-05-24T23:07:19.284Z,83.20
2018-05-24T23:09:46.859Z,83.60
2018-05-24T23:12:14.418Z,83.70
2018-05-24T23:14:41.979Z,83.90
2018-05-24T23:17:09.525Z,84.80
2018-05-24T23:19:37.079Z,84.30
2018-05-24T23:22:04.658Z,84.30
2018-05-24T23:24:32.993Z,84.60
2018-05-24T23:27:00.560Z,84.50
2018-05-24T23:29:28.155Z,84.50
2018-05-24T23:31:55.771Z,84.40
2018-05-24T23:34:23.328Z,84.00
2018-05-24T23:36:50.883Z,84.40
2018-05-24T23:39:18.426Z,84.60
2018-05-24T23:41:46.007Z,84.40
2018-05-24T23:44:13.552Z,84.60
2018-05-24T23:46:41.113Z,84.60
2018-05-24T23:49:08.666Z,85.20
2018-05-24T23:51:36.218Z,85.30
2018-05-24T23:54:03.792Z,85.30
2018-05-24T23:56:31.353Z,85.80
2018-05-24T23:58:58.899Z,85.70
